createdAt,value
2023-04-06T00:00:27.313Z,100.00
2023-04-06T00:01:29.950Z,100.00
2023-04-06T00:02:32.526Z,100.00
2023-04-06T00:03:36.062Z,100.00
2023-04-06T00:04:38.843Z,100.00
2023-04-06T00:05:41.839Z,100.00
2023-04-06T00:06:44.478Z,100.00
2023-04-06T00:07:47.243Z,100.00
2023-04-06T00:08:49.879Z,100.00
2023-04-06T00:09:52.399Z,100.00
2023-04-06T00:10:55.053Z,100.00
2023-04-06T00:11:58.910Z,100.00
2023-04-06T00:13:01.522Z,100.00
2023-04-06T00:14:04.164Z,100.00
2023-04-06T00:15:07.280Z,100.00
2023-04-06T00:16:09.935Z,100.00
2023-04-06T00:17:12.517Z,100.00
2023-04-06T00:18:15.081Z,100.00
2023-04-06T00:19:17.727Z,100.00
2023-04-06T00:20:20.252Z,100.00
2023-04-06T00:21:22.948Z,100.00
2023-04-06T00:22:25.527Z,100.00
2023-04-06T00:23:28.173Z,100.00
2023-04-06T00:24:31.192Z,100.00
2023-04-06T00:25:33.704Z,100.00
2023-04-06T00:26:36.334Z,100.00
2023-04-06T00:27:39.809Z,100.00
2023-04-06T00:28:42.331Z,100.00
2023-04-06T00:29:45.572Z,100.00
2023-04-06T00:30:48.102Z,100.00
2023-04-06T00:31:50.797Z,100.00
2023-04-06T00:32:53.294Z,100.00
2023-04-06T00:33:56.258Z,100.00
2023-04-06T00:34:59.977Z,100.00
2023-04-06T00:36:02.681Z,100.00
2023-04-06T00:37:05.271Z,100.00
2023-04-06T00:38:07.859Z,100.00
2023-04-06T00:39:11.139Z,100.00
2023-04-06T00:40:14.383Z,100.00
2023-04-06T00:41:16.900Z,100.00
2023-04-06T00:42:26.261Z,100.00
2023-04-06T00:43:28.784Z,100.00
2023-04-06T00:44:33.003Z,100.00
2023-04-06T00:45:35.868Z,100.00
2023-04-06T00:46:38.627Z,100.00
2023-04-06T00:47:41.305Z,100.00
2023-04-06T00:48:44.274Z,100.00
2023-04-06T00:49:47.269Z,100.00
2023-04-06T00:50:49.816Z,100.00
2023-04-06T00:51:52.433Z,100.00
2023-04-06T00:52:56.513Z,100.00
2023-04-06T00:54:02.756Z,100.00
2023-04-06T00:55:07.995Z,100.00
2023-04-06T00:56:15.715Z,100.00
2023-04-06T00:57:26.150Z,100.00
2023-04-06T00:58:31.564Z,100.00
2023-04-06T00:59:41.944Z,100.00
2023-04-06T01:00:46.804Z,100.00
2023-04-06T01:01:53.432Z,100.00
2023-04-06T01:03:18.601Z,100.00
2023-04-06T01:04:23.760Z,100.00
2023-04-06T01:05:27.635Z,100.00
2023-04-06T01:06:33.722Z,100.00
2023-04-06T01:07:37.926Z,100.00
2023-04-06T01:08:51.126Z,100.00
2023-04-06T01:09:56.886Z,100.00
2023-04-06T01:11:03.143Z,100.00
2023-04-06T01:12:06.365Z,100.00
2023-04-06T01:13:11.054Z,100.00
2023-04-06T01:14:21.617Z,100.00
2023-04-06T01:15:34.946Z,100.00
2023-04-06T01:16:38.419Z,100.00
2023-04-06T01:17:46.470Z,100.00
2023-04-06T01:18:52.808Z,100.00
2023-04-06T01:19:59.541Z,100.00
2023-04-06T01:21:06.999Z,100.00
2023-04-06T01:22:09.610Z,100.00
2023-04-06T01:23:19.933Z,100.00
2023-04-06T01:24:24.133Z,100.00
2023-04-06T01:25:47.054Z,100.00
2023-04-06T01:26:49.708Z,100.00
2023-04-06T01:27:52.340Z,100.00
2023-04-06T01:28:58.580Z,100.00
2023-04-06T01:30:06.620Z,100.00
2023-04-06T01:31:16.969Z,100.00
2023-04-06T01:32:23.442Z,100.00
2023-04-06T01:33:27.982Z,100.00
2023-04-06T01:34:43.468Z,100.00
2023-04-06T01:35:46.544Z,100.00
2023-04-06T01:36:52.724Z,100.00
2023-04-06T01:38:02.665Z,100.00
2023-04-06T01:39:11.547Z,100.00
2023-04-06T01:40:16.480Z,100.00
2023-04-06T01:41:24.024Z,100.00
2023-04-06T01:42:29.182Z,100.00
2023-04-06T01:43:31.712Z,100.00
2023-04-06T01:44:43.343Z,100.00
2023-04-06T01:45:49.829Z,100.00
2023-04-06T01:46:56.750Z,100.00
2023-04-06T01:47:59.375Z,100.00
2023-04-06T01:49:04.003Z,100.00
2023-04-06T01:50:10.952Z,100.00
2023-04-06T01:51:18.269Z,100.00
2023-04-06T01:52:34.603Z,100.00
2023-04-06T01:53:37.234Z,100.00
2023-04-06T01:54:42.273Z,100.00
2023-04-06T01:55:51.516Z,100.00
2023-04-06T01:57:04.359Z,100.00
2023-04-06T01:58:16.592Z,100.00
2023-04-06T01:59:19.150Z,100.00
2023-04-06T02:00:22.715Z,100.00
2023-04-06T02:01:29.270Z,100.00
2023-04-06T02:02:33.441Z,100.00
2023-04-06T02:03:40.244Z,100.00
2023-04-06T02:04:46.249Z,100.00
2023-04-06T02:05:50.089Z,100.00
2023-04-06T02:07:07.968Z,100.00
2023-04-06T02:08:10.720Z,100.00
2023-04-06T02:09:15.648Z,100.00
2023-04-06T02:10:18.894Z,100.00
2023-04-06T02:11:21.646Z,100.00
2023-04-06T02:12:27.286Z,100.00
2023-04-06T02:13:30.770Z,100.00
2023-04-06T02:14:34.133Z,100.00
2023-04-06T02:15:37.266Z,100.00
2023-04-06T02:16:39.794Z,100.00
2023-04-06T02:17:43.399Z,100.00
2023-04-06T02:18:46.267Z,100.00
2023-04-06T02:19:48.888Z,100.00
2023-04-06T02:20:51.528Z,100.00
2023-04-06T02:21:54.772Z,100.00
2023-04-06T02:22:59.934Z,100.00
2023-04-06T02:24:02.337Z,100.00
2023-04-06T02:25:05.818Z,100.00
2023-04-06T02:26:09.441Z,100.00
2023-04-06T02:27:11.931Z,100.00
2023-04-06T02:28:14.452Z,100.00
2023-04-06T02:29:16.982Z,100.00
2023-04-06T02:30:19.614Z,100.00
2023-04-06T02:31:22.166Z,100.00
2023-04-06T02:32:25.770Z,100.00
2023-04-06T02:33:29.115Z,100.00
2023-04-06T02:34:31.737Z,100.00
2023-04-06T02:35:34.274Z,100.00
2023-04-06T02:36:36.783Z,100.00
2023-04-06T02:37:39.421Z,100.00
2023-04-06T02:38:41.943Z,100.00
2023-04-06T02:39:44.584Z,100.00
2023-04-06T02:40:47.585Z,100.00
2023-04-06T02:41:56.462Z,100.00
2023-04-06T02:43:00.784Z,100.00
2023-04-06T02:44:10.143Z,100.00
2023-04-06T02:45:20.347Z,100.00
2023-04-06T02:46:24.033Z,100.00
2023-04-06T02:47:27.227Z,100.00
2023-04-06T02:48:29.885Z,100.00
2023-04-06T02:49:32.359Z,100.00
2023-04-06T02:50:35.709Z,100.00
2023-04-06T02:51:41.709Z,100.00
2023-04-06T02:52:54.070Z,100.00
2023-04-06T02:53:56.709Z,100.00
2023-04-06T02:54:59.354Z,100.00
2023-04-06T02:56:05.113Z,100.00
2023-04-06T02:57:18.317Z,100.00
2023-04-06T02:58:21.912Z,100.00
2023-04-06T02:59:29.156Z,100.00
2023-04-06T03:00:47.955Z,100.00
2023-04-06T03:01:51.350Z,100.00
2023-04-06T03:02:54.083Z,100.00
2023-04-06T03:03:56.841Z,100.00
2023-04-06T03:05:02.596Z,100.00
2023-04-06T03:06:10.157Z,100.00
2023-04-06T03:07:13.038Z,100.00
2023-04-06T03:08:15.805Z,100.00
2023-04-06T03:09:20.963Z,100.00
2023-04-06T03:10:23.482Z,100.00
2023-04-06T03:11:27.694Z,100.00
2023-04-06T03:12:30.324Z,100.00
2023-04-06T03:13:51.568Z,100.00
2023-04-06T03:14:54.098Z,100.00
2023-04-06T03:15:56.633Z,100.00
2023-04-06T03:16:59.253Z,100.00
2023-04-06T03:18:02.393Z,100.00
2023-04-06T03:19:16.411Z,100.00
2023-04-06T03:20:19.074Z,100.00
2023-04-06T03:21:21.693Z,100.00
2023-04-06T03:22:27.207Z,100.00
2023-04-06T03:23:30.212Z,100.00
2023-04-06T03:24:35.734Z,100.00
2023-04-06T03:25:38.131Z,100.00
2023-04-06T03:26:43.178Z,100.00
2023-04-06T03:27:45.814Z,100.00
2023-04-06T03:28:51.928Z,100.00
2023-04-06T03:29:57.572Z,100.00
2023-04-06T03:31:07.235Z,100.00
2023-04-06T03:32:33.071Z,100.00
2023-04-06T03:33:35.851Z,100.00
2023-04-06T03:34:39.332Z,100.00
2023-04-06T03:35:41.886Z,100.00
2023-04-06T03:36:44.623Z,100.00
2023-04-06T03:37:47.265Z,100.00
2023-04-06T03:38:50.552Z,100.00
2023-04-06T03:39:53.495Z,100.00
2023-04-06T03:40:59.017Z,100.00
2023-04-06T03:42:03.579Z,100.00
2023-04-06T03:43:11.386Z,100.00
2023-04-06T03:44:14.619Z,100.00
2023-04-06T03:45:17.273Z,100.00
2023-04-06T03:46:24.141Z,100.00
2023-04-06T03:47:29.289Z,100.00
2023-04-06T03:48:35.501Z,100.00
2023-04-06T03:49:40.805Z,100.00
2023-04-06T03:50:46.424Z,100.00
2023-04-06T03:51:49.068Z,100.00
2023-04-06T03:52:51.705Z,100.00
2023-04-06T03:53:54.349Z,100.00
2023-04-06T03:54:56.865Z,100.00
2023-04-06T03:55:59.391Z,100.00
2023-04-06T03:57:03.948Z,100.00
2023-04-06T03:58:06.471Z,100.00
2023-04-06T03:59:09.156Z,100.00
2023-04-06T04:00:12.470Z,100.00
2023-04-06T04:01:21.983Z,100.00
2023-04-06T04:02:24.717Z,100.00
2023-04-06T04:03:28.822Z,100.00
2023-04-06T04:04:31.454Z,100.00
2023-04-06T04:05:34.323Z,100.00
2023-04-06T04:06:37.583Z,100.00
2023-04-06T04:07:40.570Z,100.00
2023-04-06T04:08:45.408Z,100.00
2023-04-06T04:09:48.118Z,100.00
2023-04-06T04:10:50.649Z,100.00
2023-04-06T04:11:53.153Z,100.00
2023-04-06T04:12:56.636Z,100.00
2023-04-06T04:13:59.643Z,100.00
2023-04-06T04:15:02.398Z,100.00
2023-04-06T04:16:05.087Z,100.00
2023-04-06T04:17:07.555Z,100.00
2023-04-06T04:18:10.536Z,100.00
2023-04-06T04:19:13.218Z,100.00
2023-04-06T04:20:17.400Z,100.00
2023-04-06T04:21:19.926Z,100.00
2023-04-06T04:22:22.689Z,100.00
2023-04-06T04:23:25.330Z,100.00
2023-04-06T04:24:27.962Z,100.00
2023-04-06T04:25:31.564Z,100.00
2023-04-06T04:26:34.087Z,100.00
2023-04-06T04:27:36.730Z,100.00
2023-04-06T04:28:39.256Z,100.00
2023-04-06T04:29:41.890Z,100.00
2023-04-06T04:30:47.771Z,100.00
2023-04-06T04:31:53.244Z,100.00
2023-04-06T04:32:55.869Z,100.00
2023-04-06T04:34:01.109Z,100.00
2023-04-06T04:35:07.215Z,100.00
2023-04-06T04:36:13.346Z,100.00
2023-04-06T04:37:20.791Z,100.00
2023-04-06T04:38:30.518Z,100.00
2023-04-06T04:39:33.984Z,100.00
2023-04-06T04:40:40.585Z,100.00
2023-04-06T04:41:45.386Z,100.00
2023-04-06T04:42:48.752Z,100.00
2023-04-06T04:44:01.112Z,100.00
2023-04-06T04:45:03.878Z,100.00
2023-04-06T04:46:13.412Z,100.00
2023-04-06T04:47:18.873Z,100.00
2023-04-06T04:48:22.831Z,100.00
2023-04-06T04:49:35.440Z,100.00
2023-04-06T04:50:38.200Z,100.00
2023-04-06T04:51:40.955Z,100.00
2023-04-06T04:53:06.277Z,100.00
2023-04-06T04:54:09.277Z,100.00
2023-04-06T04:55:11.916Z,100.00
2023-04-06T04:56:14.677Z,100.00
2023-04-06T04:57:17.206Z,100.00
2023-04-06T04:58:20.929Z,100.00
2023-04-06T04:59:31.299Z,100.00
2023-04-06T05:00:44.800Z,100.00
2023-04-06T05:01:54.723Z,100.00
2023-04-06T05:03:01.583Z,100.00
2023-04-06T05:04:07.120Z,100.00
2023-04-06T05:05:10.358Z,100.00
2023-04-06T05:06:13.758Z,100.00
2023-04-06T05:07:19.755Z,100.00
2023-04-06T05:08:22.366Z,100.00
2023-04-06T05:09:25.612Z,100.00
2023-04-06T05:10:28.275Z,100.00
2023-04-06T05:11:35.461Z,100.00
2023-04-06T05:12:38.811Z,100.00
2023-04-06T05:13:46.613Z,100.00
2023-04-06T05:14:54.892Z,100.00
2023-04-06T05:15:59.061Z,100.00
2023-04-06T05:17:05.574Z,100.00
2023-04-06T05:18:09.331Z,100.00
2023-04-06T05:19:12.653Z,100.00
2023-04-06T05:20:19.497Z,100.00
2023-04-06T05:21:27.462Z,100.00
2023-04-06T05:22:40.504Z,100.00
2023-04-06T05:23:46.027Z,100.00
2023-04-06T05:24:48.791Z,100.00
2023-04-06T05:25:52.024Z,100.00
2023-04-06T05:26:57.784Z,100.00
2023-04-06T05:28:01.026Z,100.00
2023-04-06T05:29:10.126Z,100.00
2023-04-06T05:30:14.352Z,100.00
2023-04-06T05:31:20.636Z,100.00
2023-04-06T05:32:26.569Z,100.00
2023-04-06T05:33:30.198Z,100.00
2023-04-06T05:34:40.630Z,100.00
2023-04-06T05:35:43.534Z,100.00
2023-04-06T05:36:48.786Z,100.00
2023-04-06T05:37:57.668Z,100.00
2023-04-06T05:39:03.439Z,100.00
2023-04-06T05:40:11.727Z,100.00
2023-04-06T05:41:14.471Z,100.00
2023-04-06T05:42:18.189Z,100.00
2023-04-06T05:43:27.307Z,100.00
2023-04-06T05:44:32.105Z,100.00
2023-04-06T05:45:45.907Z,100.00
2023-04-06T05:46:48.623Z,100.00
2023-04-06T05:47:52.929Z,100.00
2023-04-06T05:49:00.673Z,100.00
2023-04-06T05:50:07.148Z,100.00
2023-04-06T05:51:13.029Z,100.00
2023-04-06T05:52:24.428Z,100.00
2023-04-06T05:53:27.566Z,100.00
2023-04-06T05:54:33.556Z,100.00
2023-04-06T05:55:38.012Z,100.00
2023-04-06T05:56:51.915Z,100.00
2023-04-06T05:57:54.556Z,100.00
2023-04-06T05:58:57.934Z,100.00
2023-04-06T06:00:07.781Z,100.00
2023-04-06T06:01:16.399Z,100.00
2023-04-06T06:02:22.822Z,100.00
2023-04-06T06:03:27.674Z,100.00
2023-04-06T06:04:32.743Z,100.00
2023-04-06T06:05:36.079Z,100.00
2023-04-06T06:06:46.516Z,100.00
2023-04-06T06:07:54.801Z,100.00
2023-04-06T06:09:01.823Z,100.00
2023-04-06T06:10:05.848Z,100.00
2023-04-06T06:11:11.959Z,100.00
2023-04-06T06:12:14.751Z,100.00
2023-04-06T06:13:17.606Z,100.00
2023-04-06T06:14:21.092Z,100.00
2023-04-06T06:15:24.204Z,100.00
2023-04-06T06:16:26.856Z,100.00
2023-04-06T06:17:29.379Z,100.00
2023-04-06T06:18:32.727Z,100.00
2023-04-06T06:19:35.712Z,100.00
2023-04-06T06:20:41.735Z,100.00
2023-04-06T06:21:44.778Z,100.00
2023-04-06T06:22:47.486Z,100.00
2023-04-06T06:23:55.172Z,100.00
2023-04-06T06:24:58.772Z,100.00
2023-04-06T06:26:02.655Z,100.00
2023-04-06T06:27:08.861Z,100.00
2023-04-06T06:28:13.648Z,100.00
2023-04-06T06:29:16.418Z,100.00
2023-04-06T06:30:20.963Z,100.00
2023-04-06T06:31:25.819Z,100.00
2023-04-06T06:32:28.433Z,100.00
2023-04-06T06:33:31.055Z,100.00
2023-04-06T06:34:34.781Z,100.00
2023-04-06T06:35:39.975Z,100.00
2023-04-06T06:36:43.735Z,100.00
2023-04-06T06:37:48.834Z,100.00
2023-04-06T06:38:54.721Z,100.00
2023-04-06T06:39:57.581Z,100.00
2023-04-06T06:41:00.220Z,100.00
2023-04-06T06:42:06.832Z,100.00
2023-04-06T06:43:29.643Z,100.00
2023-04-06T06:44:35.874Z,100.00
2023-04-06T06:45:38.650Z,100.00
2023-04-06T06:46:41.395Z,100.00
2023-04-06T06:47:44.063Z,100.00
2023-04-06T06:48:47.775Z,100.00
2023-04-06T06:49:50.396Z,100.00
2023-04-06T06:50:53.150Z,100.00
2023-04-06T06:51:56.055Z,100.00
2023-04-06T06:52:58.792Z,96.52
2023-04-06T06:54:01.450Z,91.74
2023-04-06T06:55:04.209Z,82.42
2023-04-06T06:56:07.110Z,81.97
2023-04-06T06:57:10.091Z,83.75
2023-04-06T06:58:13.193Z,83.69
2023-04-06T06:59:17.334Z,81.31
2023-04-06T07:00:21.982Z,78.07
2023-04-06T07:01:25.513Z,76.05
2023-04-06T07:02:28.329Z,76.16
2023-04-06T07:03:31.084Z,75.31
2023-04-06T07:04:33.796Z,79.20
2023-04-06T07:05:36.483Z,80.30
2023-04-06T07:06:39.239Z,79.12
2023-04-06T07:07:42.978Z,76.69
2023-04-06T07:08:45.500Z,73.71
2023-04-06T07:09:48.264Z,74.13
2023-04-06T07:10:54.402Z,73.55
2023-04-06T07:11:57.748Z,71.63
2023-04-06T07:13:01.454Z,75.45
2023-04-06T07:14:04.099Z,70.53
2023-04-06T07:15:07.530Z,67.85
2023-04-06T07:16:10.595Z,68.92
2023-04-06T07:17:13.891Z,70.29
2023-04-06T07:18:17.912Z,70.54
2023-04-06T07:19:21.377Z,67.36
2023-04-06T07:20:24.032Z,69.87
2023-04-06T07:21:27.747Z,69.79
2023-04-06T07:22:30.488Z,66.63
2023-04-06T07:23:33.130Z,66.15
2023-04-06T07:24:35.903Z,66.08
2023-04-06T07:25:38.791Z,67.26
2023-04-06T07:26:41.411Z,65.57
2023-04-06T07:27:44.310Z,65.62
2023-04-06T07:28:47.676Z,65.65
2023-04-06T07:29:51.997Z,67.04
2023-04-06T07:30:56.502Z,64.92
2023-04-06T07:32:01.651Z,67.36
2023-04-06T07:33:04.603Z,64.89
2023-04-06T07:34:07.467Z,60.97
2023-04-06T07:35:10.702Z,61.87
2023-04-06T07:36:13.342Z,62.58
2023-04-06T07:37:16.098Z,62.51
2023-04-06T07:38:18.995Z,61.97
2023-04-06T07:39:22.221Z,61.86
2023-04-06T07:40:24.863Z,62.42
2023-04-06T07:41:27.533Z,60.80
2023-04-06T07:42:30.145Z,59.37
2023-04-06T07:43:32.672Z,56.59
2023-04-06T07:44:35.424Z,56.87
2023-04-06T07:45:38.104Z,58.93
2023-04-06T07:46:41.199Z,59.38
2023-04-06T07:47:44.248Z,60.92
2023-04-06T07:48:47.553Z,58.71
2023-04-06T07:49:50.075Z,59.78
2023-04-06T07:50:52.949Z,59.42
2023-04-06T07:51:55.950Z,58.15
2023-04-06T07:52:58.953Z,57.72
2023-04-06T07:54:01.617Z,56.16
2023-04-06T07:55:04.448Z,54.08
2023-04-06T07:56:07.119Z,53.71
2023-04-06T07:57:09.633Z,53.94
2023-04-06T07:58:12.240Z,54.58
2023-04-06T07:59:14.865Z,52.14
2023-04-06T08:00:18.037Z,50.62
2023-04-06T08:01:20.561Z,50.36
2023-04-06T08:02:23.290Z,47.99
2023-04-06T08:03:26.870Z,50.50
2023-04-06T08:04:29.595Z,49.46
2023-04-06T08:05:32.200Z,50.87
2023-04-06T08:06:35.445Z,51.25
2023-04-06T08:07:38.201Z,50.57
2023-04-06T08:08:40.722Z,48.14
2023-04-06T08:09:43.601Z,47.21
2023-04-06T08:10:46.362Z,46.80
2023-04-06T08:11:49.861Z,48.62
2023-04-06T08:12:53.567Z,47.49
2023-04-06T08:13:59.212Z,45.11
2023-04-06T08:15:03.402Z,47.35
2023-04-06T08:16:06.427Z,48.75
2023-04-06T08:17:08.927Z,49.60
2023-04-06T08:18:11.388Z,47.87
2023-04-06T08:19:13.970Z,46.59
2023-04-06T08:20:16.505Z,46.71
2023-04-06T08:21:19.490Z,47.11
2023-04-06T08:22:22.009Z,46.95
2023-04-06T08:23:24.527Z,47.73
2023-04-06T08:24:27.048Z,47.33
2023-04-06T08:25:29.575Z,46.99
2023-04-06T08:26:32.234Z,46.25
2023-04-06T08:27:34.857Z,46.02
2023-04-06T08:28:37.266Z,44.87
2023-04-06T08:29:39.892Z,43.40
2023-04-06T08:30:43.616Z,44.73
2023-04-06T08:31:46.275Z,44.67
2023-04-06T08:32:49.030Z,44.10
2023-04-06T08:33:51.428Z,42.83
2023-04-06T08:34:57.186Z,44.09
2023-04-06T08:35:59.833Z,43.97
2023-04-06T08:37:02.465Z,43.17
2023-04-06T08:38:04.995Z,42.50
2023-04-06T08:39:07.503Z,41.54
2023-04-06T08:40:10.501Z,41.19
2023-04-06T08:41:14.727Z,41.51
2023-04-06T08:42:21.902Z,41.31
2023-04-06T08:43:25.512Z,40.71
2023-04-06T08:44:28.381Z,40.98
2023-04-06T08:45:31.386Z,39.27
2023-04-06T08:46:34.686Z,36.95
2023-04-06T08:47:40.625Z,38.62
2023-04-06T08:48:44.227Z,38.17
2023-04-06T08:49:47.230Z,37.61
2023-04-06T08:50:49.755Z,37.46
2023-04-06T08:51:52.752Z,36.88
2023-04-06T08:52:56.108Z,36.05
2023-04-06T08:54:01.055Z,37.22
2023-04-06T08:55:04.266Z,36.62
2023-04-06T08:56:08.351Z,36.93
2023-04-06T08:57:11.516Z,37.65
2023-04-06T08:58:17.351Z,36.80
2023-04-06T08:59:27.218Z,37.50
2023-04-06T09:00:30.798Z,37.24
2023-04-06T09:01:35.950Z,35.80
2023-04-06T09:02:44.667Z,33.48
2023-04-06T09:03:48.345Z,33.34
2023-04-06T09:04:54.831Z,33.11
2023-04-06T09:05:57.797Z,34.56
2023-04-06T09:07:00.926Z,34.19
2023-04-06T09:08:03.918Z,35.78
2023-04-06T09:09:06.342Z,35.06
2023-04-06T09:10:09.801Z,33.39
2023-04-06T09:11:12.445Z,34.20
2023-04-06T09:12:25.880Z,35.17
2023-04-06T09:13:28.403Z,34.55
2023-04-06T09:14:41.734Z,34.25
2023-04-06T09:15:45.208Z,34.37
2023-04-06T09:16:50.486Z,33.25
2023-04-06T09:17:55.559Z,32.75
2023-04-06T09:19:06.087Z,31.04
2023-04-06T09:20:08.729Z,31.48
2023-04-06T09:21:11.728Z,31.39
2023-04-06T09:22:14.769Z,32.94
2023-04-06T09:23:21.124Z,32.00
2023-04-06T09:24:27.274Z,30.89
2023-04-06T09:25:31.205Z,32.06
2023-04-06T09:26:34.981Z,32.08
2023-04-06T09:27:39.213Z,32.20
2023-04-06T09:28:52.897Z,32.43
2023-04-06T09:30:07.416Z,31.73
2023-04-06T09:31:11.323Z,31.31
2023-04-06T09:32:18.230Z,31.47
2023-04-06T09:33:24.940Z,31.74
2023-04-06T09:34:27.461Z,31.10
2023-04-06T09:35:32.450Z,32.66
2023-04-06T09:36:36.974Z,32.74
2023-04-06T09:37:39.826Z,32.24
2023-04-06T09:39:03.823Z,32.42
2023-04-06T09:40:08.517Z,31.77
2023-04-06T09:41:11.145Z,30.82
2023-04-06T09:42:26.147Z,30.41
2023-04-06T09:43:29.390Z,30.68
2023-04-06T09:44:32.033Z,30.13
2023-04-06T09:45:34.795Z,29.29
2023-04-06T09:46:58.679Z,27.98
2023-04-06T09:48:02.619Z,27.19
2023-04-06T09:49:06.263Z,27.45
2023-04-06T09:50:10.436Z,27.14
2023-04-06T09:51:16.447Z,28.80
2023-04-06T09:52:20.276Z,29.64
2023-04-06T09:53:27.713Z,29.14
2023-04-06T09:54:33.262Z,29.29
2023-04-06T09:55:47.275Z,28.62
2023-04-06T09:57:07.193Z,28.36
2023-04-06T09:58:17.036Z,29.12
2023-04-06T09:59:44.234Z,30.52
2023-04-06T10:01:04.642Z,28.02
2023-04-06T10:02:09.717Z,29.45
2023-04-06T10:03:49.180Z,29.20
2023-04-06T10:05:00.012Z,28.30
2023-04-06T10:06:05.826Z,28.31
2023-04-06T10:07:12.240Z,27.67
2023-04-06T10:08:15.235Z,28.53
2023-04-06T10:09:17.762Z,28.72
2023-04-06T10:10:21.239Z,27.88
2023-04-06T10:11:24.000Z,28.11
2023-04-06T10:12:26.650Z,28.01
2023-04-06T10:13:29.278Z,28.57
2023-04-06T10:14:35.167Z,27.99
2023-04-06T10:15:42.130Z,28.27
2023-04-06T10:16:45.069Z,27.55
2023-04-06T10:17:47.713Z,28.21
2023-04-06T10:19:19.922Z,29.47
2023-04-06T10:20:31.924Z,28.65
2023-04-06T10:21:37.905Z,29.59
2023-04-06T10:22:54.275Z,29.21
2023-04-06T10:24:03.011Z,29.17
2023-04-06T10:25:08.061Z,28.56
2023-04-06T10:26:21.798Z,27.90
2023-04-06T10:27:31.353Z,27.24
2023-04-06T10:28:37.129Z,27.67
2023-04-06T10:29:49.715Z,26.33
2023-04-06T10:30:58.693Z,27.82
2023-04-06T10:32:01.361Z,26.75
2023-04-06T10:33:14.816Z,26.84
2023-04-06T10:34:17.423Z,27.57
2023-04-06T10:35:19.937Z,27.27
2023-04-06T10:36:33.864Z,26.98
2023-04-06T10:37:53.543Z,27.36
2023-04-06T10:39:01.466Z,26.69
2023-04-06T10:40:04.222Z,26.31
2023-04-06T10:41:11.922Z,26.91
2023-04-06T10:42:15.398Z,27.52
2023-04-06T10:43:23.594Z,25.92
2023-04-06T10:44:26.324Z,25.73
2023-04-06T10:45:32.849Z,25.53
2023-04-06T10:46:35.553Z,26.21
2023-04-06T10:47:42.144Z,26.34
2023-04-06T10:48:47.871Z,25.44
2023-04-06T10:49:50.549Z,25.65
2023-04-06T10:50:54.155Z,26.61
2023-04-06T10:51:57.905Z,26.46
2023-04-06T10:53:02.234Z,27.35
2023-04-06T10:54:06.394Z,26.94
2023-04-06T10:55:13.132Z,27.94
2023-04-06T10:56:17.517Z,27.92
2023-04-06T10:57:30.177Z,28.19
2023-04-06T10:58:32.797Z,27.41
2023-04-06T10:59:35.614Z,27.64
2023-04-06T11:00:50.640Z,27.81
2023-04-06T11:01:56.142Z,28.83
2023-04-06T11:03:03.009Z,27.22
2023-04-06T11:04:05.821Z,27.44
2023-04-06T11:05:09.047Z,26.56
2023-04-06T11:06:11.678Z,27.70
2023-04-06T11:07:24.395Z,27.45
2023-04-06T11:08:34.489Z,28.00
2023-04-06T11:09:37.716Z,28.61
2023-04-06T11:10:40.365Z,29.03
2023-04-06T11:11:43.000Z,28.73
2023-04-06T11:12:45.655Z,27.26
2023-04-06T11:13:51.533Z,26.01
2023-04-06T11:15:08.084Z,25.90
2023-04-06T11:16:19.058Z,26.06
2023-04-06T11:17:29.222Z,26.63
2023-04-06T11:18:32.737Z,27.24
2023-04-06T11:19:35.584Z,26.04
2023-04-06T11:20:38.325Z,26.23
2023-04-06T11:21:49.524Z,25.08
2023-04-06T11:22:53.223Z,25.61
2023-04-06T11:24:08.211Z,25.23
2023-04-06T11:26:18.310Z,23.59
2023-04-06T11:27:21.915Z,24.69
2023-04-06T11:28:24.414Z,24.54
2023-04-06T11:29:32.623Z,24.72
2023-04-06T11:30:35.213Z,24.95
2023-04-06T11:31:42.179Z,25.49
2023-04-06T11:32:46.655Z,25.72
2023-04-06T11:33:57.576Z,26.71
2023-04-06T11:35:00.790Z,25.79
2023-04-06T11:36:03.309Z,25.37
2023-04-06T11:37:10.380Z,24.94
2023-04-06T11:38:12.900Z,24.52
2023-04-06T11:39:20.820Z,25.24
2023-04-06T11:40:23.941Z,24.19
2023-04-06T11:41:28.745Z,24.91
2023-04-06T11:42:31.385Z,24.70
2023-04-06T11:43:33.914Z,25.28
2023-04-06T11:44:37.280Z,25.87
2023-04-06T11:45:44.350Z,25.78
2023-04-06T11:46:57.905Z,24.15
2023-04-06T11:48:01.663Z,25.09
2023-04-06T11:49:04.458Z,23.98
2023-04-06T11:50:12.219Z,24.52
2023-04-06T11:51:23.108Z,25.28
2023-04-06T11:52:27.083Z,25.76
2023-04-06T11:53:30.835Z,25.58
2023-04-06T11:54:38.855Z,27.59
2023-04-06T11:55:41.839Z,26.44
2023-04-06T11:56:47.720Z,27.64
2023-04-06T11:57:50.965Z,26.20
2023-04-06T11:58:56.056Z,25.86
2023-04-06T11:59:58.756Z,24.76
2023-04-06T12:01:05.607Z,24.82
2023-04-06T12:02:08.368Z,24.40
2023-04-06T12:03:10.934Z,25.43
2023-04-06T12:04:13.564Z,25.60
2023-04-06T12:05:16.535Z,26.25
2023-04-06T12:06:19.874Z,25.93
2023-04-06T12:07:22.400Z,26.52
2023-04-06T12:08:26.476Z,26.22
2023-04-06T12:09:28.999Z,25.79
2023-04-06T12:10:31.765Z,26.12
2023-04-06T12:11:34.400Z,27.39
2023-04-06T12:12:37.040Z,26.58
2023-04-06T12:13:39.817Z,27.11
2023-04-06T12:14:42.322Z,27.48
2023-04-06T12:15:45.008Z,28.03
2023-04-06T12:16:47.728Z,27.82
2023-04-06T12:17:51.042Z,28.74
2023-04-06T12:18:53.724Z,27.97
2023-04-06T12:20:01.833Z,29.22
2023-04-06T12:21:07.775Z,28.51
2023-04-06T12:22:10.413Z,28.05
2023-04-06T12:23:12.929Z,27.19
2023-04-06T12:24:15.694Z,26.98
2023-04-06T12:25:18.447Z,26.66
2023-04-06T12:26:21.450Z,26.55
2023-04-06T12:27:24.117Z,27.47
2023-04-06T12:28:28.069Z,27.20
2023-04-06T12:29:30.812Z,27.98
2023-04-06T12:30:33.332Z,26.86
2023-04-06T12:31:39.367Z,27.43
2023-04-06T12:32:42.064Z,26.67
2023-04-06T12:33:47.733Z,26.74
2023-04-06T12:34:50.617Z,27.39
2023-04-06T12:35:53.135Z,26.54
2023-04-06T12:36:55.820Z,27.04
2023-04-06T12:37:58.425Z,26.88
2023-04-06T12:39:04.417Z,27.57
2023-04-06T12:40:07.423Z,26.70
2023-04-06T12:41:09.939Z,26.94
2023-04-06T12:42:13.668Z,26.46
2023-04-06T12:43:16.302Z,26.73
2023-04-06T12:44:18.819Z,27.46
2023-04-06T12:45:21.345Z,26.71
2023-04-06T12:46:24.808Z,28.57
2023-04-06T12:47:27.719Z,26.47
2023-04-06T12:48:31.184Z,28.01
2023-04-06T12:49:33.714Z,29.00
2023-04-06T12:50:36.473Z,29.07
2023-04-06T12:51:39.104Z,28.80
2023-04-06T12:52:41.868Z,28.66
2023-04-06T12:53:44.386Z,27.91
2023-04-06T12:54:48.661Z,27.69
2023-04-06T12:55:56.458Z,27.81
2023-04-06T12:56:59.031Z,27.49
2023-04-06T12:58:02.061Z,25.75
2023-04-06T12:59:04.744Z,25.63
2023-04-06T13:00:09.542Z,26.37
2023-04-06T13:01:15.154Z,26.86
2023-04-06T13:02:17.680Z,25.69
2023-04-06T13:03:21.993Z,25.75
2023-04-06T13:04:24.479Z,26.53
2023-04-06T13:05:28.872Z,27.46
2023-04-06T13:06:32.276Z,27.83
2023-04-06T13:07:34.935Z,28.16
2023-04-06T13:08:39.366Z,28.56
2023-04-06T13:09:42.118Z,28.49
2023-04-06T13:10:54.367Z,28.92
2023-04-06T13:11:57.875Z,29.35
2023-04-06T13:13:01.084Z,29.66
2023-04-06T13:14:03.720Z,29.81
2023-04-06T13:15:06.850Z,30.16
2023-04-06T13:16:10.062Z,29.72
2023-04-06T13:17:12.846Z,30.23
2023-04-06T13:18:15.489Z,30.47
2023-04-06T13:19:19.323Z,31.45
2023-04-06T13:20:21.968Z,31.83
2023-04-06T13:21:24.488Z,31.69
2023-04-06T13:22:27.496Z,31.58
2023-04-06T13:23:30.036Z,31.72
2023-04-06T13:24:32.542Z,32.04
2023-04-06T13:25:35.654Z,32.70
2023-04-06T13:26:38.290Z,32.84
2023-04-06T13:27:40.930Z,32.62
2023-04-06T13:28:43.958Z,33.16
2023-04-06T13:29:46.812Z,33.19
2023-04-06T13:30:50.175Z,32.98
2023-04-06T13:31:52.738Z,33.20
2023-04-06T13:32:55.487Z,33.27
2023-04-06T13:33:58.105Z,33.27
2023-04-06T13:35:01.843Z,33.65
2023-04-06T13:36:05.062Z,33.89
2023-04-06T13:37:07.726Z,34.10
2023-04-06T13:38:10.461Z,33.44
2023-04-06T13:39:12.982Z,34.29
2023-04-06T13:40:15.623Z,33.91
2023-04-06T13:41:22.474Z,34.36
2023-04-06T13:42:25.104Z,34.11
2023-04-06T13:43:28.105Z,34.57
2023-04-06T13:44:30.747Z,35.32